sensor_id;sensor_type;location;lat;lon;timestamp;P1;durP1;ratioP1;P2;durP2;ratioP2
18592;SDS011;9426;54.118;17.948;2022-10-28T00:03:43;70.93;;;34.77;;
18592;SDS011;9426;54.118;17.948;2022-10-28T00:09:08;73.17;;;36.10;;
18592;SDS011;9426;54.118;17.948;2022-10-28T00:14:31;61.17;;;31.57;;
18592;SDS011;9426;54.118;17.948;2022-10-28T00:19:56;63.70;;;34.50;;
18592;SDS011;9426;54.118;17.948;2022-10-28T00:25:19;50.53;;;28.50;;
18592;SDS011;9426;54.118;17.948;2022-10-28T00:30:45;58.83;;;31.77;;
18592;SDS011;9426;54.118;17.948;2022-10-28T00:36:10;69.30;;;35.77;;
18592;SDS011;9426;54.118;17.948;2022-10-28T00:41:36;140.10;;;44.27;;
18592;SDS011;9426;54.118;17.948;2022-10-28T00:47:02;63.17;;;33.40;;
18592;SDS011;9426;54.118;17.948;2022-10-28T00:52:28;87.13;;;36.63;;
18592;SDS011;9426;54.118;17.948;2022-10-28T00:57:52;179.50;;;48.77;;
18592;SDS011;9426;54.118;17.948;2022-10-28T01:03:18;65.33;;;34.17;;
18592;SDS011;9426;54.118;17.948;2022-10-28T01:08:43;77.17;;;36.43;;
18592;SDS011;9426;54.118;17.948;2022-10-28T01:14:14;60.40;;;31.93;;
18592;SDS011;9426;54.118;17.948;2022-10-28T01:25:44;63.93;;;32.53;;
18592;SDS011;9426;54.118;17.948;2022-10-28T01:31:23;44.23;;;27.47;;
18592;SDS011;9426;54.118;17.948;2022-10-28T01:36:55;40.67;;;26.50;;
18592;SDS011;9426;54.118;17.948;2022-10-28T01:42:23;44.67;;;26.43;;
18592;SDS011;9426;54.118;17.948;2022-10-28T01:47:52;50.50;;;28.07;;
18592;SDS011;9426;54.118;17.948;2022-10-28T01:53:21;48.33;;;27.57;;
18592;SDS011;9426;54.118;17.948;2022-10-28T01:58:48;39.17;;;25.57;;
18592;SDS011;9426;54.118;17.948;2022-10-28T02:04:16;45.97;;;26.50;;
18592;SDS011;9426;54.118;17.948;2022-10-28T02:09:43;39.67;;;24.33;;
18592;SDS011;9426;54.118;17.948;2022-10-28T02:15:22;36.00;;;24.30;;
18592;SDS011;9426;54.118;17.948;2022-10-28T02:20:56;36.07;;;24.03;;
18592;SDS011;9426;54.118;17.948;2022-10-28T02:26:25;31.17;;;21.83;;
18592;SDS011;9426;54.118;17.948;2022-10-28T02:31:56;32.37;;;22.27;;
18592;SDS011;9426;54.118;17.948;2022-10-28T02:37:26;29.17;;;20.87;;
18592;SDS011;9426;54.118;17.948;2022-10-28T02:42:52;29.97;;;21.90;;
18592;SDS011;9426;54.118;17.948;2022-10-28T02:48:20;32.33;;;23.00;;
18592;SDS011;9426;54.118;17.948;2022-10-28T02:53:51;38.80;;;23.50;;
18592;SDS011;9426;54.118;17.948;2022-10-28T02:59:22;34.83;;;22.80;;
18592;SDS011;9426;54.118;17.948;2022-10-28T03:04:46;37.50;;;26.07;;
18592;SDS011;9426;54.118;17.948;2022-10-28T03:10:10;36.90;;;23.37;;
18592;SDS011;9426;54.118;17.948;2022-10-28T03:15:34;37.83;;;25.30;;
18592;SDS011;9426;54.118;17.948;2022-10-28T03:20:57;38.43;;;25.63;;
18592;SDS011;9426;54.118;17.948;2022-10-28T03:26:21;36.47;;;23.13;;
18592;SDS011;9426;54.118;17.948;2022-10-28T03:31:44;36.90;;;24.27;;
18592;SDS011;9426;54.118;17.948;2022-10-28T03:37:08;35.97;;;23.23;;
18592;SDS011;9426;54.118;17.948;2022-10-28T03:42:32;39.47;;;23.97;;
18592;SDS011;9426;54.118;17.948;2022-10-28T03:47:56;33.83;;;21.90;;
18592;SDS011;9426;54.118;17.948;2022-10-28T03:53:19;31.67;;;21.67;;
18592;SDS011;9426;54.118;17.948;2022-10-28T03:58:47;40.40;;;26.23;;
18592;SDS011;9426;54.118;17.948;2022-10-28T04:04:10;43.57;;;27.20;;
18592;SDS011;9426;54.118;17.948;2022-10-28T04:09:33;62.27;;;33.57;;
18592;SDS011;9426;54.118;17.948;2022-10-28T04:14:58;59.07;;;33.10;;
18592;SDS011;9426;54.118;17.948;2022-10-28T04:20:21;52.83;;;32.43;;
18592;SDS011;9426;54.118;17.948;2022-10-28T04:25:46;50.27;;;28.20;;
18592;SDS011;9426;54.118;17.948;2022-10-28T04:31:14;52.63;;;32.17;;
18592;SDS011;9426;54.118;17.948;2022-10-28T04:36:37;93.37;;;41.43;;
18592;SDS011;9426;54.118;17.948;2022-10-28T04:42:01;52.23;;;32.47;;
18592;SDS011;9426;54.118;17.948;2022-10-28T04:47:25;107.43;;;45.33;;
18592;SDS011;9426;54.118;17.948;2022-10-28T04:52:48;65.03;;;38.43;;
18592;SDS011;9426;54.118;17.948;2022-10-28T04:58:12;57.23;;;34.90;;
18592;SDS011;9426;54.118;17.948;2022-10-28T05:03:36;73.43;;;38.87;;
18592;SDS011;9426;54.118;17.948;2022-10-28T05:08:59;65.70;;;37.63;;
18592;SDS011;9426;54.118;17.948;2022-10-28T05:14:22;63.23;;;34.63;;
18592;SDS011;9426;54.118;17.948;2022-10-28T05:19:48;60.53;;;33.20;;
18592;SDS011;9426;54.118;17.948;2022-10-28T05:25:11;50.03;;;29.73;;
18592;SDS011;9426;54.118;17.948;2022-10-28T05:30:34;49.80;;;29.37;;
18592;SDS011;9426;54.118;17.948;2022-10-28T05:35:59;64.40;;;33.60;;
18592;SDS011;9426;54.118;17.948;2022-10-28T05:41:22;62.97;;;33.57;;
18592;SDS011;9426;54.118;17.948;2022-10-28T05:46:46;55.57;;;30.33;;
18592;SDS011;9426;54.118;17.948;2022-10-28T05:52:10;53.00;;;29.33;;
18592;SDS011;9426;54.118;17.948;2022-10-28T05:57:33;49.23;;;27.40;;
18592;SDS011;9426;54.118;17.948;2022-10-28T06:03:00;51.73;;;29.13;;
18592;SDS011;9426;54.118;17.948;2022-10-28T06:08:28;55.37;;;29.70;;
18592;SDS011;9426;54.118;17.948;2022-10-28T06:13:51;62.37;;;32.23;;
18592;SDS011;9426;54.118;17.948;2022-10-28T06:19:15;63.17;;;32.63;;
18592;SDS011;9426;54.118;17.948;2022-10-28T06:24:39;59.70;;;32.00;;
18592;SDS011;9426;54.118;17.948;2022-10-28T06:30:03;55.63;;;29.60;;
18592;SDS011;9426;54.118;17.948;2022-10-28T06:35:27;52.53;;;29.07;;
18592;SDS011;9426;54.118;17.948;2022-10-28T06:40:52;62.50;;;32.93;;
18592;SDS011;9426;54.118;17.948;2022-10-28T06:46:16;100.13;;;37.80;;
18592;SDS011;9426;54.118;17.948;2022-10-28T06:51:39;67.40;;;34.30;;
18592;SDS011;9426;54.118;17.948;2022-10-28T06:57:04;63.00;;;33.57;;
18592;SDS011;9426;54.118;17.948;2022-10-28T07:02:28;73.23;;;36.87;;
18592;SDS011;9426;54.118;17.948;2022-10-28T07:07:51;69.20;;;34.53;;
18592;SDS011;9426;54.118;17.948;2022-10-28T07:13:16;69.17;;;36.80;;
18592;SDS011;9426;54.118;17.948;2022-10-28T07:18:40;83.40;;;38.47;;
18592;SDS011;9426;54.118;17.948;2022-10-28T07:24:03;84.63;;;39.77;;
18592;SDS011;9426;54.118;17.948;2022-10-28T07:29:28;97.23;;;41.97;;
18592;SDS011;9426;54.118;17.948;2022-10-28T07:34:52;80.07;;;40.83;;
18592;SDS011;9426;54.118;17.948;2022-10-28T07:40:15;74.30;;;41.60;;
18592;SDS011;9426;54.118;17.948;2022-10-28T07:45:40;132.00;;;46.87;;
18592;SDS011;9426;54.118;17.948;2022-10-28T07:51:04;71.53;;;39.30;;
18592;SDS011;9426;54.118;17.948;2022-10-28T07:56:28;73.87;;;41.50;;
18592;SDS011;9426;54.118;17.948;2022-10-28T08:01:53;128.27;;;51.87;;
18592;SDS011;9426;54.118;17.948;2022-10-28T08:07:16;91.90;;;46.30;;
18592;SDS011;9426;54.118;17.948;2022-10-28T08:12:40;73.43;;;41.77;;
18592;SDS011;9426;54.118;17.948;2022-10-28T08:18:05;72.53;;;40.60;;
18592;SDS011;9426;54.118;17.948;2022-10-28T08:23:28;72.03;;;40.33;;
18592;SDS011;9426;54.118;17.948;2022-10-28T08:28:52;87.50;;;45.77;;
18592;SDS011;9426;54.118;17.948;2022-10-28T08:34:16;75.27;;;40.57;;
18592;SDS011;9426;54.118;17.948;2022-10-28T08:39:40;85.73;;;45.37;;
18592;SDS011;9426;54.118;17.948;2022-10-28T08:45:10;75.90;;;43.20;;
18592;SDS011;9426;54.118;17.948;2022-10-28T08:50:47;78.20;;;43.97;;
18592;SDS011;9426;54.118;17.948;2022-10-28T08:56:13;71.73;;;42.03;;
18592;SDS011;9426;54.118;17.948;2022-10-28T09:01:45;65.60;;;40.03;;
18592;SDS011;9426;54.118;17.948;2022-10-28T09:07:13;78.83;;;46.60;;
18592;SDS011;9426;54.118;17.948;2022-10-28T09:12:40;81.37;;;46.03;;
18592;SDS011;9426;54.118;17.948;2022-10-28T09:18:11;59.10;;;37.53;;
18592;SDS011;9426;54.118;17.948;2022-10-28T09:23:41;52.53;;;34.37;;
18592;SDS011;9426;54.118;17.948;2022-10-28T09:29:19;77.00;;;49.03;;
18592;SDS011;9426;54.118;17.948;2022-10-28T09:34:53;70.57;;;39.27;;
18592;SDS011;9426;54.118;17.948;2022-10-28T09:40:23;56.10;;;35.23;;
18592;SDS011;9426;54.118;17.948;2022-10-28T09:45:48;60.17;;;37.03;;
18592;SDS011;9426;54.118;17.948;2022-10-28T09:51:17;70.90;;;40.10;;
18592;SDS011;9426;54.118;17.948;2022-10-28T09:56:50;54.67;;;34.07;;
18592;SDS011;9426;54.118;17.948;2022-10-28T10:02:21;65.57;;;39.77;;
18592;SDS011;9426;54.118;17.948;2022-10-28T10:07:51;74.57;;;42.03;;
18592;SDS011;9426;54.118;17.948;2022-10-28T10:13:19;59.43;;;38.03;;
18592;SDS011;9426;54.118;17.948;2022-10-28T10:18:46;56.50;;;34.70;;
18592;SDS011;9426;54.118;17.948;2022-10-28T10:29:59;52.10;;;31.93;;
18592;SDS011;9426;54.118;17.948;2022-10-28T10:35:23;67.30;;;37.33;;
18592;SDS011;9426;54.118;17.948;2022-10-28T10:40:49;62.07;;;34.43;;
18592;SDS011;9426;54.118;17.948;2022-10-28T10:46:15;66.83;;;38.17;;
18592;SDS011;9426;54.118;17.948;2022-10-28T10:51:39;58.70;;;36.10;;
18592;SDS011;9426;54.118;17.948;2022-10-28T10:57:14;69.53;;;41.10;;
18592;SDS011;9426;54.118;17.948;2022-10-28T11:02:43;67.33;;;41.37;;
18592;SDS011;9426;54.118;17.948;2022-10-28T11:08:24;62.37;;;39.37;;
18592;SDS011;9426;54.118;17.948;2022-10-28T11:14:00;74.97;;;44.30;;
18592;SDS011;9426;54.118;17.948;2022-10-28T11:19:28;64.23;;;41.93;;
18592;SDS011;9426;54.118;17.948;2022-10-28T11:30:45;63.07;;;42.43;;
18592;SDS011;9426;54.118;17.948;2022-10-28T11:36:20;67.33;;;42.73;;
18592;SDS011;9426;54.118;17.948;2022-10-28T11:41:56;44.70;;;30.23;;
18592;SDS011;9426;54.118;17.948;2022-10-28T11:47:37;40.53;;;27.73;;
18592;SDS011;9426;54.118;17.948;2022-10-28T11:59:10;40.80;;;26.60;;
18592;SDS011;9426;54.118;17.948;2022-10-28T12:04:46;38.97;;;23.37;;
18592;SDS011;9426;54.118;17.948;2022-10-28T12:10:21;38.50;;;22.80;;
18592;SDS011;9426;54.118;17.948;2022-10-28T12:16:02;27.67;;;17.60;;
18592;SDS011;9426;54.118;17.948;2022-10-28T12:21:33;35.90;;;21.77;;
18592;SDS011;9426;54.118;17.948;2022-10-28T12:27:01;30.17;;;18.90;;
18592;SDS011;9426;54.118;17.948;2022-10-28T12:32:33;30.60;;;17.60;;
18592;SDS011;9426;54.118;17.948;2022-10-28T12:38:01;27.57;;;16.13;;
18592;SDS011;9426;54.118;17.948;2022-10-28T12:43:32;25.47;;;16.03;;
18592;SDS011;9426;54.118;17.948;2022-10-28T12:49:02;27.30;;;16.47;;
18592;SDS011;9426;54.118;17.948;2022-10-28T12:54:32;27.53;;;15.40;;
18592;SDS011;9426;54.118;17.948;2022-10-28T13:00:05;30.00;;;14.40;;
18592;SDS011;9426;54.118;17.948;2022-10-28T13:05:38;30.17;;;17.27;;
18592;SDS011;9426;54.118;17.948;2022-10-28T13:11:25;33.20;;;18.70;;
18592;SDS011;9426;54.118;17.948;2022-10-28T13:17:07;38.70;;;19.60;;
18592;SDS011;9426;54.118;17.948;2022-10-28T13:28:42;26.03;;;17.63;;
18592;SDS011;9426;54.118;17.948;2022-10-28T13:34:09;44.07;;;21.53;;
18592;SDS011;9426;54.118;17.948;2022-10-28T13:39:38;43.77;;;23.17;;
18592;SDS011;9426;54.118;17.948;2022-10-28T13:45:07;37.60;;;24.27;;
18592;SDS011;9426;54.118;17.948;2022-10-28T13:57:12;42.50;;;24.63;;
18592;SDS011;9426;54.118;17.948;2022-10-28T14:02:44;31.83;;;20.43;;
18592;SDS011;9426;54.118;17.948;2022-10-28T14:08:16;41.03;;;25.73;;
18592;SDS011;9426;54.118;17.948;2022-10-28T14:13:47;37.10;;;21.83;;
18592;SDS011;9426;54.118;17.948;2022-10-28T14:19:13;41.83;;;23.23;;
18592;SDS011;9426;54.118;17.948;2022-10-28T14:24:41;31.13;;;19.53;;
18592;SDS011;9426;54.118;17.948;2022-10-28T14:30:22;33.20;;;19.90;;
18592;SDS011;9426;54.118;17.948;2022-10-28T14:35:45;25.73;;;17.10;;
18592;SDS011;9426;54.118;17.948;2022-10-28T14:41:24;28.13;;;16.77;;
18592;SDS011;9426;54.118;17.948;2022-10-28T14:47:06;25.70;;;15.60;;
18592;SDS011;9426;54.118;17.948;2022-10-28T14:52:42;26.93;;;15.70;;
18592;SDS011;9426;54.118;17.948;2022-10-28T14:58:15;27.80;;;15.93;;
18592;SDS011;9426;54.118;17.948;2022-10-28T15:03:46;22.87;;;14.83;;
18592;SDS011;9426;54.118;17.948;2022-10-28T15:09:15;25.27;;;16.57;;
18592;SDS011;9426;54.118;17.948;2022-10-28T15:14:44;29.87;;;18.23;;
18592;SDS011;9426;54.118;17.948;2022-10-28T15:20:17;42.33;;;22.67;;
18592;SDS011;9426;54.118;17.948;2022-10-28T15:25:44;41.27;;;23.17;;
18592;SDS011;9426;54.118;17.948;2022-10-28T15:31:25;33.40;;;21.90;;
18592;SDS011;9426;54.118;17.948;2022-10-28T15:36:56;34.17;;;21.23;;
18592;SDS011;9426;54.118;17.948;2022-10-28T15:42:30;30.33;;;19.23;;
18592;SDS011;9426;54.118;17.948;2022-10-28T15:47:59;30.23;;;19.63;;
18592;SDS011;9426;54.118;17.948;2022-10-28T15:53:35;32.40;;;20.17;;
18592;SDS011;9426;54.118;17.948;2022-10-28T15:59:01;34.17;;;21.57;;
18592;SDS011;9426;54.118;17.948;2022-10-28T16:04:39;41.00;;;23.53;;
18592;SDS011;9426;54.118;17.948;2022-10-28T16:10:13;37.77;;;23.00;;
18592;SDS011;9426;54.118;17.948;2022-10-28T16:15:40;35.00;;;23.50;;
18592;SDS011;9426;54.118;17.948;2022-10-28T16:21:10;34.57;;;21.70;;
18592;SDS011;9426;54.118;17.948;2022-10-28T16:26:40;41.80;;;23.97;;
18592;SDS011;9426;54.118;17.948;2022-10-28T16:32:04;34.43;;;23.70;;
18592;SDS011;9426;54.118;17.948;2022-10-28T16:37:28;39.87;;;25.63;;
18592;SDS011;9426;54.118;17.948;2022-10-28T16:42:54;38.53;;;23.90;;
18592;SDS011;9426;54.118;17.948;2022-10-28T16:48:18;41.73;;;26.50;;
18592;SDS011;9426;54.118;17.948;2022-10-28T16:53:43;43.63;;;25.63;;
18592;SDS011;9426;54.118;17.948;2022-10-28T16:59:11;47.37;;;30.60;;
18592;SDS011;9426;54.118;17.948;2022-10-28T17:04:38;43.77;;;28.83;;
18592;SDS011;9426;54.118;17.948;2022-10-28T17:10:02;44.07;;;28.43;;
18592;SDS011;9426;54.118;17.948;2022-10-28T17:15:28;48.20;;;32.27;;
18592;SDS011;9426;54.118;17.948;2022-10-28T17:20:57;47.40;;;29.97;;
18592;SDS011;9426;54.118;17.948;2022-10-28T17:26:21;47.30;;;27.93;;
18592;SDS011;9426;54.118;17.948;2022-10-28T17:31:46;58.60;;;35.90;;
18592;SDS011;9426;54.118;17.948;2022-10-28T17:37:09;163.53;;;85.37;;
18592;SDS011;9426;54.118;17.948;2022-10-28T17:42:33;98.23;;;52.67;;
18592;SDS011;9426;54.118;17.948;2022-10-28T17:47:59;91.00;;;48.53;;
18592;SDS011;9426;54.118;17.948;2022-10-28T17:53:22;62.27;;;36.60;;
18592;SDS011;9426;54.118;17.948;2022-10-28T17:58:46;60.90;;;33.73;;
18592;SDS011;9426;54.118;17.948;2022-10-28T18:04:11;57.97;;;34.07;;
18592;SDS011;9426;54.118;17.948;2022-10-28T18:09:35;62.73;;;34.63;;
18592;SDS011;9426;54.118;17.948;2022-10-28T18:15:00;62.43;;;33.93;;
18592;SDS011;9426;54.118;17.948;2022-10-28T18:20:27;45.57;;;29.43;;
18592;SDS011;9426;54.118;17.948;2022-10-28T18:25:56;42.90;;;27.33;;
18592;SDS011;9426;54.118;17.948;2022-10-28T18:31:20;56.87;;;32.93;;
18592;SDS011;9426;54.118;17.948;2022-10-28T18:36:45;46.03;;;27.70;;
18592;SDS011;9426;54.118;17.948;2022-10-28T18:42:09;45.73;;;27.20;;
18592;SDS011;9426;54.118;17.948;2022-10-28T18:47:32;49.37;;;30.10;;
18592;SDS011;9426;54.118;17.948;2022-10-28T18:52:57;42.93;;;27.23;;
18592;SDS011;9426;54.118;17.948;2022-10-28T18:58:22;40.47;;;25.37;;
18592;SDS011;9426;54.118;17.948;2022-10-28T19:03:49;40.23;;;26.20;;
18592;SDS011;9426;54.118;17.948;2022-10-28T19:09:15;42.13;;;27.80;;
18592;SDS011;9426;54.118;17.948;2022-10-28T19:14:38;39.23;;;26.30;;
18592;SDS011;9426;54.118;17.948;2022-10-28T19:20:02;42.87;;;28.57;;
18592;SDS011;9426;54.118;17.948;2022-10-28T19:25:27;49.77;;;31.20;;
18592;SDS011;9426;54.118;17.948;2022-10-28T19:30:57;58.33;;;34.00;;
18592;SDS011;9426;54.118;17.948;2022-10-28T19:36:22;65.77;;;35.03;;
18592;SDS011;9426;54.118;17.948;2022-10-28T19:41:48;64.83;;;38.77;;
18592;SDS011;9426;54.118;17.948;2022-10-28T19:47:11;53.73;;;31.27;;
18592;SDS011;9426;54.118;17.948;2022-10-28T19:52:35;59.43;;;32.50;;
18592;SDS011;9426;54.118;17.948;2022-10-28T19:57:59;51.67;;;30.13;;
18592;SDS011;9426;54.118;17.948;2022-10-28T20:03:23;70.40;;;37.83;;
18592;SDS011;9426;54.118;17.948;2022-10-28T20:08:49;70.40;;;35.10;;
18592;SDS011;9426;54.118;17.948;2022-10-28T20:14:15;58.00;;;34.27;;
18592;SDS011;9426;54.118;17.948;2022-10-28T20:19:39;62.10;;;34.63;;
18592;SDS011;9426;54.118;17.948;2022-10-28T20:25:05;48.10;;;30.07;;
18592;SDS011;9426;54.118;17.948;2022-10-28T20:30:31;60.33;;;33.43;;
18592;SDS011;9426;54.118;17.948;2022-10-28T20:35:56;50.63;;;29.03;;
18592;SDS011;9426;54.118;17.948;2022-10-28T20:41:22;49.40;;;28.80;;
18592;SDS011;9426;54.118;17.948;2022-10-28T20:46:47;55.13;;;30.13;;
18592;SDS011;9426;54.118;17.948;2022-10-28T20:52:11;94.27;;;45.80;;
18592;SDS011;9426;54.118;17.948;2022-10-28T20:57:36;89.20;;;44.83;;
18592;SDS011;9426;54.118;17.948;2022-10-28T21:03:02;72.87;;;39.20;;
18592;SDS011;9426;54.118;17.948;2022-10-28T21:08:25;71.20;;;38.33;;
18592;SDS011;9426;54.118;17.948;2022-10-28T21:13:49;62.50;;;38.23;;
18592;SDS011;9426;54.118;17.948;2022-10-28T21:19:15;57.40;;;32.43;;
18592;SDS011;9426;54.118;17.948;2022-10-28T21:24:39;60.17;;;31.57;;
18592;SDS011;9426;54.118;17.948;2022-10-28T21:30:03;52.77;;;29.63;;
18592;SDS011;9426;54.118;17.948;2022-10-28T21:35:29;53.70;;;30.80;;
18592;SDS011;9426;54.118;17.948;2022-10-28T21:40:57;47.53;;;28.50;;
18592;SDS011;9426;54.118;17.948;2022-10-28T21:46:22;55.60;;;32.27;;
18592;SDS011;9426;54.118;17.948;2022-10-28T21:51:47;47.87;;;27.63;;
18592;SDS011;9426;54.118;17.948;2022-10-28T21:57:11;51.00;;;28.83;;
18592;SDS011;9426;54.118;17.948;2022-10-28T22:02:34;62.63;;;32.73;;
18592;SDS011;9426;54.118;17.948;2022-10-28T22:07:59;45.43;;;26.77;;
18592;SDS011;9426;54.118;17.948;2022-10-28T22:13:23;44.73;;;26.93;;
18592;SDS011;9426;54.118;17.948;2022-10-28T22:18:46;49.23;;;28.80;;
18592;SDS011;9426;54.118;17.948;2022-10-28T22:24:11;54.83;;;29.90;;
18592;SDS011;9426;54.118;17.948;2022-10-28T22:29:34;48.73;;;27.13;;
18592;SDS011;9426;54.118;17.948;2022-10-28T22:34:58;48.00;;;27.20;;
18592;SDS011;9426;54.118;17.948;2022-10-28T22:40:23;51.53;;;28.20;;
18592;SDS011;9426;54.118;17.948;2022-10-28T22:45:46;50.43;;;26.97;;
18592;SDS011;9426;54.118;17.948;2022-10-28T22:51:09;42.17;;;27.63;;
18592;SDS011;9426;54.118;17.948;2022-10-28T22:56:35;46.50;;;26.10;;
18592;SDS011;9426;54.118;17.948;2022-10-28T23:01:58;46.40;;;28.50;;
18592;SDS011;9426;54.118;17.948;2022-10-28T23:07:21;45.50;;;28.00;;
18592;SDS011;9426;54.118;17.948;2022-10-28T23:12:46;40.37;;;24.03;;
18592;SDS011;9426;54.118;17.948;2022-10-28T23:18:15;36.10;;;23.60;;
18592;SDS011;9426;54.118;17.948;2022-10-28T23:23:39;36.40;;;23.63;;
18592;SDS011;9426;54.118;17.948;2022-10-28T23:29:04;40.70;;;23.87;;
18592;SDS011;9426;54.118;17.948;2022-10-28T23:34:28;39.53;;;23.63;;
18592;SDS011;9426;54.118;17.948;2022-10-28T23:39:51;43.00;;;25.63;;
18592;SDS011;9426;54.118;17.948;2022-10-28T23:45:16;41.93;;;24.23;;
18592;SDS011;9426;54.118;17.948;2022-10-28T23:50:39;44.47;;;24.13;;
18592;SDS011;9426;54.118;17.948;2022-10-28T23:56:02;43.83;;;25.83;;
